createdAt,value
2022-10-11T00:00:06.497Z,12.55
2022-10-11T00:02:53.228Z,11.13
2022-10-11T00:05:20.196Z,15.82
2022-10-11T00:07:46.927Z,13.20
2022-10-11T00:10:13.654Z,12.75
2022-10-11T00:12:40.715Z,15.10
2022-10-11T00:15:09.112Z,16.98
2022-10-11T00:17:35.881Z,13.35
2022-10-11T00:20:03.216Z,14.13
2022-10-11T00:22:30.002Z,12.40
2022-10-11T00:24:58.698Z,11.68
2022-10-11T00:27:25.919Z,11.20
2022-10-11T00:29:52.774Z,10.63
2022-10-11T00:32:20.158Z,10.88
2022-10-11T00:34:47.322Z,11.35
2022-10-11T00:37:14.034Z,17.20
2022-10-11T00:39:40.771Z,13.10
2022-10-11T00:42:13.386Z,13.13
2022-10-11T00:44:43.274Z,12.52
2022-10-11T00:47:15.394Z,12.00
2022-10-11T00:49:57.696Z,11.45
2022-10-11T00:52:32.912Z,11.68
2022-10-11T00:55:10.516Z,11.40
2022-10-11T00:57:41.461Z,12.60
2022-10-11T01:00:11.634Z,9.00
2022-10-11T01:02:40.214Z,14.70
2022-10-11T01:05:28.249Z,11.93
2022-10-11T01:07:57.697Z,11.40
2022-10-11T01:10:24.633Z,12.40
2022-10-11T01:13:36.572Z,12.23
2022-10-11T01:16:29.833Z,12.32
2022-10-11T01:19:37.940Z,11.32
2022-10-11T01:22:34.290Z,13.55
2022-10-11T01:25:32.712Z,9.00
2022-10-11T01:28:08.865Z,13.23
2022-10-11T01:30:37.209Z,19.98
2022-10-11T01:33:48.374Z,14.75
2022-10-11T01:36:27.635Z,11.60
2022-10-11T01:39:03.460Z,12.32
2022-10-11T01:41:53.052Z,11.80
2022-10-11T01:44:20.605Z,14.88
2022-10-11T01:46:47.311Z,12.00
2022-10-11T01:49:14.043Z,19.13
2022-10-11T01:51:47.518Z,10.48
2022-10-11T01:54:27.702Z,15.57
2022-10-11T01:57:12.945Z,15.27
2022-10-11T01:59:57.682Z,11.60
2022-10-11T02:02:27.552Z,12.00
2022-10-11T02:05:15.184Z,13.70
2022-10-11T02:07:50.103Z,12.00
2022-10-11T02:10:56.019Z,13.27
2022-10-11T02:13:33.443Z,13.38
2022-10-11T02:16:06.689Z,11.00
2022-10-11T02:21:06.889Z,13.55
2022-10-11T02:23:39.086Z,17.85
2022-10-11T02:26:07.358Z,11.57
2022-10-11T02:28:37.909Z,12.50
2022-10-11T02:31:07.065Z,10.63
2022-10-11T02:33:40.784Z,15.55
2022-10-11T02:36:14.291Z,13.05
2022-10-11T02:38:49.524Z,13.25
2022-10-11T02:41:27.767Z,11.07
2022-10-11T02:44:11.819Z,12.73
2022-10-11T02:46:40.050Z,12.93
2022-10-11T02:49:08.493Z,10.65
2022-10-11T02:51:36.044Z,9.77
2022-10-11T02:54:06.060Z,10.80
2022-10-11T02:56:32.985Z,9.30
2022-10-11T02:58:59.739Z,11.77
2022-10-11T03:01:26.478Z,10.23
2022-10-11T03:03:53.539Z,9.55
2022-10-11T03:06:20.266Z,12.30
2022-10-11T03:08:47.031Z,14.73
2022-10-11T03:11:13.943Z,18.10
2022-10-11T03:13:40.803Z,20.77
2022-10-11T03:16:07.710Z,25.92
2022-10-11T03:18:34.737Z,25.70
2022-10-11T03:21:01.484Z,23.92
2022-10-11T03:23:28.320Z,23.38
2022-10-11T03:25:55.285Z,25.50
2022-10-11T03:28:22.182Z,24.73
2022-10-11T03:30:50.256Z,19.38
2022-10-11T03:33:17.968Z,20.45
2022-10-11T03:35:46.598Z,21.80
2022-10-11T03:38:15.605Z,23.48
2022-10-11T03:40:43.824Z,18.35
2022-10-11T03:43:10.789Z,22.30
2022-10-11T03:45:37.884Z,21.85
2022-10-11T03:48:05.495Z,13.13
2022-10-11T03:50:32.335Z,15.23
2022-10-11T03:52:59.229Z,11.45
2022-10-11T03:55:26.549Z,12.55
2022-10-11T03:57:53.493Z,13.82
2022-10-11T04:00:20.650Z,13.18
2022-10-11T04:02:47.609Z,10.48
2022-10-11T04:05:14.705Z,12.02
2022-10-11T04:07:41.799Z,9.52
2022-10-11T04:10:08.921Z,11.07
2022-10-11T04:12:38.334Z,9.48
2022-10-11T04:15:06.542Z,7.80
2022-10-11T04:17:33.560Z,9.68
2022-10-11T04:20:00.357Z,13.23
2022-10-11T04:22:27.158Z,10.45
2022-10-11T04:24:54.194Z,10.20
2022-10-11T04:27:21.031Z,10.38
2022-10-11T04:29:47.772Z,12.00
2022-10-11T04:32:14.957Z,10.88
2022-10-11T04:34:42.178Z,10.32
2022-10-11T04:37:08.921Z,8.23
2022-10-11T04:39:35.988Z,9.85
2022-10-11T04:42:02.711Z,12.80
2022-10-11T04:44:29.553Z,9.85
2022-10-11T04:46:56.628Z,10.02
2022-10-11T04:49:23.550Z,9.95
2022-10-11T04:51:50.623Z,9.27
2022-10-11T04:54:17.804Z,13.55
2022-10-11T04:56:44.867Z,9.15
2022-10-11T04:59:11.829Z,10.00
2022-10-11T05:01:39.127Z,10.23
2022-10-11T05:04:06.053Z,10.25
2022-10-11T05:06:32.919Z,8.45
2022-10-11T05:09:00.681Z,8.43
2022-10-11T05:11:27.445Z,10.18
2022-10-11T05:13:56.499Z,10.38
2022-10-11T05:16:24.683Z,7.55
2022-10-11T05:18:51.595Z,9.52
2022-10-11T05:21:20.969Z,9.48
2022-10-11T05:23:49.877Z,9.60
2022-10-11T05:26:17.834Z,8.15
2022-10-11T05:28:44.703Z,13.32
2022-10-11T05:31:11.822Z,14.32
2022-10-11T05:33:39.372Z,18.95
2022-10-11T05:36:07.904Z,19.83
2022-10-11T05:38:35.387Z,19.77
2022-10-11T05:41:03.029Z,20.42
2022-10-11T05:43:31.163Z,12.48
2022-10-11T05:45:58.413Z,17.23
2022-10-11T05:48:26.843Z,13.65
2022-10-11T05:51:00.445Z,13.18
2022-10-11T05:53:27.783Z,12.45
2022-10-11T05:55:55.045Z,10.85
2022-10-11T05:58:22.003Z,17.77
2022-10-11T06:00:49.042Z,12.73
2022-10-11T06:03:16.014Z,10.50
2022-10-11T06:05:42.780Z,12.88
2022-10-11T06:08:11.120Z,13.43
2022-10-11T06:10:38.613Z,11.75
2022-10-11T06:13:06.556Z,12.10
2022-10-11T06:15:34.426Z,10.82
2022-10-11T06:18:01.196Z,11.82
2022-10-11T06:20:28.115Z,15.15
2022-10-11T06:22:55.136Z,10.88
2022-10-11T06:25:21.912Z,10.38
2022-10-11T06:27:48.635Z,11.80
2022-10-11T06:30:15.599Z,10.23
2022-10-11T06:32:42.340Z,10.73
2022-10-11T06:35:09.254Z,14.52
2022-10-11T06:37:36.226Z,11.73
2022-10-11T06:40:03.195Z,9.15
2022-10-11T06:42:29.960Z,12.75
2022-10-11T06:44:57.170Z,7.80
2022-10-11T06:47:23.893Z,8.98
2022-10-11T06:49:50.640Z,11.95
2022-10-11T06:52:17.599Z,9.93
2022-10-11T06:54:45.409Z,8.55
2022-10-11T06:57:12.663Z,10.65
2022-10-11T06:59:39.723Z,11.13
2022-10-11T07:02:06.843Z,12.68
2022-10-11T07:04:34.066Z,9.18
2022-10-11T07:07:01.118Z,9.07
2022-10-11T07:09:27.942Z,15.27
2022-10-11T07:11:54.731Z,10.18
2022-10-11T07:14:21.673Z,9.65
2022-10-11T07:16:48.486Z,11.98
2022-10-11T07:19:15.431Z,14.38
2022-10-11T07:21:42.498Z,14.85
2022-10-11T07:24:09.403Z,12.25
2022-10-11T07:26:38.934Z,12.40
2022-10-11T07:29:11.345Z,9.35
2022-10-11T07:31:40.463Z,11.95
2022-10-11T07:34:07.627Z,9.60
2022-10-11T07:36:34.928Z,8.57
2022-10-11T07:39:05.123Z,12.18
2022-10-11T07:41:32.103Z,7.75
2022-10-11T07:43:58.988Z,7.93
2022-10-11T07:46:25.911Z,10.70
2022-10-11T07:48:52.920Z,11.23
2022-10-11T07:51:21.952Z,8.15
2022-10-11T07:53:51.815Z,8.05
2022-10-11T07:56:21.031Z,9.75
2022-10-11T07:58:57.938Z,7.30
2022-10-11T08:01:26.150Z,9.35
2022-10-11T08:03:53.711Z,12.93
2022-10-11T08:06:23.712Z,9.77
2022-10-11T08:08:50.642Z,8.68
2022-10-11T08:11:23.495Z,9.57
2022-10-11T08:13:50.337Z,10.02
2022-10-11T08:16:17.757Z,12.23
2022-10-11T08:18:44.776Z,11.02
2022-10-11T08:21:17.101Z,11.75
2022-10-11T08:23:44.581Z,11.65
2022-10-11T08:26:11.503Z,9.30
2022-10-11T08:28:38.675Z,12.43
2022-10-11T08:31:06.614Z,12.45
2022-10-11T08:33:33.422Z,8.90
2022-10-11T08:36:05.038Z,11.98
2022-10-11T08:38:33.052Z,9.80
2022-10-11T08:41:01.051Z,9.45
2022-10-11T08:44:06.871Z,10.07
2022-10-11T08:46:38.773Z,10.98
2022-10-11T08:49:07.522Z,11.30
2022-10-11T08:51:42.121Z,10.73
2022-10-11T08:54:27.204Z,19.77
2022-10-11T08:56:53.991Z,14.63
2022-10-11T08:59:41.498Z,10.18
2022-10-11T09:03:02.888Z,10.60
2022-10-11T09:05:25.529Z,11.52
2022-10-11T09:08:13.584Z,16.98
2022-10-11T09:11:22.513Z,13.75
2022-10-11T09:14:07.427Z,11.13
2022-10-11T09:16:44.821Z,13.45
2022-10-11T09:19:40.543Z,14.32
2022-10-11T09:22:30.786Z,13.43
2022-10-11T09:25:22.443Z,12.82
2022-10-11T09:28:05.163Z,17.35
2022-10-11T09:30:33.173Z,14.52
2022-10-11T09:33:17.288Z,11.68
2022-10-11T09:35:48.613Z,13.25
2022-10-11T09:38:37.108Z,12.63
2022-10-11T09:41:35.673Z,12.23
2022-10-11T09:44:02.636Z,11.65
2022-10-11T09:46:29.678Z,11.65
2022-10-11T09:48:57.568Z,11.13
2022-10-11T09:51:32.668Z,10.48
2022-10-11T09:54:02.371Z,13.27
2022-10-11T09:56:31.811Z,16.33
2022-10-11T09:59:26.289Z,11.50
2022-10-11T10:02:22.409Z,12.18
2022-10-11T10:05:10.906Z,17.17
2022-10-11T10:08:04.711Z,14.35
2022-10-11T10:10:40.661Z,13.73
2022-10-11T10:13:41.060Z,12.13
2022-10-11T10:16:18.499Z,17.33
2022-10-11T10:19:00.468Z,15.27
2022-10-11T10:21:32.625Z,14.48
2022-10-11T10:24:04.155Z,17.80
2022-10-11T10:26:32.512Z,14.88
2022-10-11T10:29:01.495Z,12.23
2022-10-11T10:32:01.882Z,14.05
2022-10-11T10:34:35.135Z,17.10
2022-10-11T10:37:42.400Z,15.60
2022-10-11T10:40:22.926Z,12.98
2022-10-11T10:42:51.038Z,10.30
2022-10-11T10:45:21.768Z,17.33
2022-10-11T10:47:54.769Z,14.50
2022-10-11T10:50:55.839Z,14.45
2022-10-11T10:53:42.098Z,14.45
2022-10-11T10:56:34.628Z,13.43
2022-10-11T10:59:25.183Z,16.75
2022-10-11T11:02:15.963Z,13.02
2022-10-11T11:05:13.381Z,12.60
2022-10-11T11:07:50.107Z,15.60
2022-10-11T11:10:25.511Z,15.82
2022-10-11T11:13:08.078Z,13.10
2022-10-11T11:16:16.014Z,13.45
2022-10-11T11:19:07.074Z,13.98
2022-10-11T11:22:12.213Z,15.55
2022-10-11T11:25:16.654Z,18.60
2022-10-11T11:27:59.414Z,14.20
2022-10-11T11:30:47.425Z,17.52
2022-10-11T11:33:36.138Z,13.15
2022-10-11T11:36:10.939Z,14.60
2022-10-11T11:38:46.552Z,16.40
2022-10-11T11:41:31.044Z,15.82
2022-10-11T11:44:06.842Z,16.88
2022-10-11T11:46:57.313Z,16.90
2022-10-11T11:49:31.632Z,14.13
2022-10-11T11:51:59.417Z,12.75
2022-10-11T11:54:43.196Z,13.70
2022-10-11T11:57:39.656Z,15.13
2022-10-11T12:00:15.546Z,12.77
2022-10-11T12:03:05.570Z,14.57
2022-10-11T12:05:36.151Z,14.35
2022-10-11T12:08:25.774Z,14.68
2022-10-11T12:11:01.274Z,13.80
2022-10-11T12:13:37.264Z,11.10
2022-10-11T12:16:03.971Z,11.32
2022-10-11T12:18:34.125Z,14.35
2022-10-11T12:21:19.079Z,13.10
2022-10-11T12:23:48.954Z,15.82
2022-10-11T12:26:27.790Z,16.27
2022-10-11T12:29:06.495Z,12.85
2022-10-11T12:31:38.044Z,13.70
2022-10-11T12:34:09.264Z,18.80
2022-10-11T12:36:45.338Z,14.55
2022-10-11T12:39:18.445Z,15.80
2022-10-11T12:41:48.482Z,15.07
2022-10-11T12:44:19.314Z,17.67
2022-10-11T12:46:54.968Z,14.60
2022-10-11T12:49:33.644Z,15.85
2022-10-11T12:52:03.125Z,14.73
2022-10-11T12:54:48.584Z,18.35
2022-10-11T12:57:42.546Z,16.20
2022-10-11T13:00:30.965Z,13.50
2022-10-11T13:03:01.398Z,12.98
2022-10-11T13:05:44.929Z,16.35
2022-10-11T13:08:26.278Z,17.67
2022-10-11T13:10:55.827Z,14.50
2022-10-11T13:13:44.751Z,15.88
2022-10-11T13:16:20.545Z,16.08
2022-10-11T13:18:50.819Z,15.88
2022-10-11T13:21:25.868Z,14.20
2022-10-11T13:23:59.186Z,15.40
2022-10-11T13:26:29.039Z,13.20
2022-10-11T13:28:56.568Z,16.48
2022-10-11T13:31:25.126Z,17.63
2022-10-11T13:33:59.086Z,16.80
2022-10-11T13:36:27.310Z,14.23
2022-10-11T13:38:57.812Z,14.88
2022-10-11T13:41:27.330Z,11.98
2022-10-11T13:43:56.982Z,13.88
2022-10-11T13:46:26.292Z,15.32
2022-10-11T13:49:37.294Z,14.65
2022-10-11T13:52:19.369Z,12.93
2022-10-11T13:55:10.418Z,11.57
2022-10-11T13:57:46.256Z,17.33
2022-10-11T14:00:16.472Z,10.35
2022-10-11T14:03:06.816Z,12.45
2022-10-11T14:05:38.845Z,21.98
2022-10-11T14:08:19.185Z,14.60
2022-10-11T14:10:47.538Z,14.75
2022-10-11T14:13:24.924Z,14.68
2022-10-11T14:16:03.910Z,14.18
2022-10-11T14:18:37.077Z,14.57
2022-10-11T14:21:27.491Z,21.42
2022-10-11T14:24:00.288Z,14.75
2022-10-11T14:26:31.727Z,12.90
2022-10-11T14:29:01.915Z,17.13
2022-10-11T14:31:29.402Z,9.85
2022-10-11T14:33:56.904Z,13.50
2022-10-11T14:36:23.915Z,12.40
2022-10-11T14:38:51.210Z,14.18
2022-10-11T14:41:18.751Z,18.75
2022-10-11T14:43:45.545Z,13.43
2022-10-11T14:46:24.488Z,14.80
2022-10-11T14:48:56.510Z,17.02
2022-10-11T14:51:32.071Z,17.05
2022-10-11T14:53:58.957Z,17.15
2022-10-11T14:56:26.045Z,14.48
2022-10-11T14:58:53.004Z,20.27
2022-10-11T15:01:19.839Z,11.93
2022-10-11T15:03:46.834Z,18.27
2022-10-11T15:06:36.808Z,14.93
2022-10-11T15:09:05.028Z,15.60
2022-10-11T15:11:32.351Z,13.07
2022-10-11T15:13:59.174Z,16.50
2022-10-11T15:16:26.975Z,18.13
2022-10-11T15:18:53.760Z,14.18
2022-10-11T15:21:26.863Z,15.85
2022-10-11T15:23:55.186Z,17.75
2022-10-11T15:26:24.874Z,17.08
2022-10-11T15:28:53.676Z,14.52
2022-10-11T15:31:21.093Z,18.95
2022-10-11T15:33:48.618Z,16.30
2022-10-11T15:36:20.651Z,17.15
2022-10-11T15:38:48.952Z,17.40
2022-10-11T15:41:18.942Z,20.17
2022-10-11T15:43:48.446Z,16.20
2022-10-11T15:46:19.141Z,15.48
2022-10-11T15:48:46.749Z,19.48
2022-10-11T15:51:13.798Z,16.08
2022-10-11T15:53:40.827Z,16.88
2022-10-11T15:56:12.769Z,18.30
2022-10-11T15:58:41.008Z,12.23
2022-10-11T16:01:16.533Z,18.40
2022-10-11T16:03:43.716Z,22.50
2022-10-11T16:06:11.838Z,18.15
2022-10-11T16:08:39.202Z,20.65
2022-10-11T16:11:08.370Z,15.18
2022-10-11T16:13:35.619Z,15.90
2022-10-11T16:16:12.108Z,16.65
2022-10-11T16:18:39.397Z,18.70
2022-10-11T16:21:10.421Z,16.92
2022-10-11T16:23:38.516Z,20.20
2022-10-11T16:26:09.763Z,17.23
2022-10-11T16:28:37.806Z,19.88
2022-10-11T16:31:14.907Z,17.23
2022-10-11T16:33:48.010Z,17.58
2022-10-11T16:36:40.722Z,17.80
2022-10-11T16:39:18.452Z,20.27
2022-10-11T16:41:46.925Z,15.25
2022-10-11T16:44:15.643Z,18.30
2022-10-11T16:46:43.169Z,26.65
2022-10-11T16:49:10.226Z,21.00
2022-10-11T16:51:36.965Z,22.50
2022-10-11T16:54:04.002Z,19.92
2022-10-11T16:56:32.521Z,22.90
2022-10-11T16:59:01.088Z,19.45
2022-10-11T17:01:28.055Z,25.65
2022-10-11T17:03:55.833Z,25.58
2022-10-11T17:06:23.809Z,24.02
2022-10-11T17:08:50.888Z,31.80
2022-10-11T17:11:18.105Z,22.75
2022-10-11T17:13:45.806Z,31.90
2022-10-11T17:16:12.777Z,26.85
2022-10-11T17:18:39.760Z,27.45
2022-10-11T17:21:09.366Z,23.42
2022-10-11T17:23:36.440Z,24.63
2022-10-11T17:26:10.066Z,21.60
2022-10-11T17:28:38.901Z,27.58
2022-10-11T17:31:07.653Z,25.92
2022-10-11T17:33:35.017Z,27.48
2022-10-11T17:36:02.224Z,29.02
2022-10-11T17:38:29.149Z,29.25
2022-10-11T17:41:05.101Z,23.75
2022-10-11T17:43:32.156Z,24.42
2022-10-11T17:46:01.443Z,28.42
2022-10-11T17:48:29.106Z,25.73
2022-10-11T17:50:56.218Z,26.00
2022-10-11T17:53:23.231Z,26.75
2022-10-11T17:55:50.467Z,30.67
2022-10-11T17:58:18.335Z,27.98
2022-10-11T18:00:45.353Z,36.00
2022-10-11T18:03:12.124Z,32.28
2022-10-11T18:05:42.342Z,52.67
2022-10-11T18:08:09.787Z,37.92
2022-10-11T18:10:38.027Z,43.83
2022-10-11T18:13:06.818Z,41.80
2022-10-11T18:15:34.024Z,41.13
2022-10-11T18:18:00.876Z,40.85
2022-10-11T18:20:27.613Z,43.47
2022-10-11T18:22:54.663Z,31.08
2022-10-11T18:25:21.497Z,38.55
2022-10-11T18:27:48.313Z,30.73
2022-10-11T18:30:15.745Z,37.47
2022-10-11T18:32:43.948Z,37.40
2022-10-11T18:35:11.295Z,30.60
2022-10-11T18:37:38.100Z,32.28
2022-10-11T18:40:05.606Z,30.98
2022-10-11T18:42:32.408Z,28.58
2022-10-11T18:44:59.396Z,29.75
2022-10-11T18:47:26.588Z,30.45
2022-10-11T18:49:54.466Z,31.50
2022-10-11T18:52:24.494Z,31.65
2022-10-11T18:54:51.982Z,29.60
2022-10-11T18:57:18.984Z,26.63
2022-10-11T18:59:47.105Z,23.38
2022-10-11T19:02:13.849Z,27.30
2022-10-11T19:04:40.627Z,23.80
2022-10-11T19:07:10.451Z,23.58
2022-10-11T19:09:38.075Z,21.75
2022-10-11T19:12:06.639Z,23.67
2022-10-11T19:14:33.510Z,26.15
2022-10-11T19:17:00.254Z,22.55
2022-10-11T19:19:29.124Z,25.42
2022-10-11T19:21:55.883Z,30.67
2022-10-11T19:24:24.479Z,27.05
2022-10-11T19:26:53.129Z,32.80
2022-10-11T19:29:22.802Z,25.67
2022-10-11T19:31:52.555Z,24.63
2022-10-11T19:34:20.240Z,26.63
2022-10-11T19:36:50.079Z,25.48
2022-10-11T19:39:18.327Z,28.63
2022-10-11T19:41:45.568Z,31.73
2022-10-11T19:44:16.491Z,24.77
2022-10-11T19:46:51.579Z,32.10
2022-10-11T19:49:22.622Z,29.48
2022-10-11T19:51:50.153Z,24.77
2022-10-11T19:54:17.547Z,25.65
2022-10-11T19:56:44.779Z,27.65
2022-10-11T19:59:12.594Z,32.17
2022-10-11T20:01:40.175Z,30.60
2022-10-11T20:04:12.915Z,36.47
2022-10-11T20:06:49.679Z,40.45
2022-10-11T20:09:29.184Z,43.17
2022-10-11T20:11:56.750Z,39.10
2022-10-11T20:14:23.850Z,39.05
2022-10-11T20:16:51.140Z,39.45
2022-10-11T20:19:19.393Z,38.67
2022-10-11T20:21:46.185Z,40.47
2022-10-11T20:24:13.282Z,34.20
2022-10-11T20:26:40.083Z,30.80
2022-10-11T20:29:07.211Z,34.08
2022-10-11T20:31:38.159Z,35.35
2022-10-11T20:34:07.477Z,33.03
2022-10-11T20:36:36.137Z,33.08
2022-10-11T20:39:04.387Z,29.00
2022-10-11T20:41:34.182Z,31.42
2022-10-11T20:44:03.217Z,28.48
2022-10-11T20:46:32.637Z,32.50
2022-10-11T20:49:02.343Z,30.52
2022-10-11T20:51:33.893Z,27.33
2022-10-11T20:54:02.108Z,28.15
2022-10-11T20:56:29.858Z,23.98
2022-10-11T20:58:58.101Z,25.98
2022-10-11T21:01:31.759Z,23.65
2022-10-11T21:04:01.385Z,21.73
2022-10-11T21:06:29.838Z,27.05
2022-10-11T21:08:59.013Z,26.05
2022-10-11T21:11:29.947Z,30.83
2022-10-11T21:14:01.734Z,28.63
2022-10-11T21:16:29.054Z,24.17
2022-10-11T21:18:57.563Z,28.38
2022-10-11T21:21:25.045Z,26.75
2022-10-11T21:24:00.223Z,29.00
2022-10-11T21:26:28.507Z,23.17
2022-10-11T21:28:55.428Z,30.13
2022-10-11T21:31:23.512Z,25.80
2022-10-11T21:33:50.686Z,27.58
2022-10-11T21:36:22.097Z,28.60
2022-10-11T21:38:50.330Z,25.52
2022-10-11T21:41:20.303Z,26.63
2022-10-11T21:43:47.353Z,26.98
2022-10-11T21:46:41.772Z,23.42
2022-10-11T21:49:12.305Z,24.40
2022-10-11T21:51:39.067Z,25.20
2022-10-11T21:54:06.200Z,26.95
2022-10-11T21:56:32.984Z,22.13
2022-10-11T21:58:59.772Z,31.13
2022-10-11T22:01:27.759Z,25.83
2022-10-11T22:03:57.970Z,32.75
2022-10-11T22:06:27.699Z,22.90
2022-10-11T22:08:54.637Z,25.02
2022-10-11T22:11:21.373Z,26.52
2022-10-11T22:13:49.440Z,22.13
2022-10-11T22:16:16.238Z,21.30
2022-10-11T22:18:43.262Z,23.27
2022-10-11T22:21:15.920Z,24.17
2022-10-11T22:23:45.723Z,24.75
2022-10-11T22:26:16.293Z,24.70
2022-10-11T22:28:43.135Z,22.88
2022-10-11T22:31:10.400Z,24.33
2022-10-11T22:33:38.051Z,22.65
2022-10-11T22:36:10.172Z,25.20
2022-10-11T22:38:38.456Z,26.20
2022-10-11T22:41:06.755Z,24.70
2022-10-11T22:43:33.620Z,26.40
2022-10-11T22:46:00.743Z,30.27
2022-10-11T22:48:27.838Z,22.13
2022-10-11T22:50:54.683Z,24.63
2022-10-11T22:53:21.723Z,23.95
2022-10-11T22:55:48.808Z,27.67
2022-10-11T22:58:15.660Z,25.00
2022-10-11T23:00:42.734Z,26.70
2022-10-11T23:03:17.232Z,24.02
2022-10-11T23:05:44.007Z,25.35
2022-10-11T23:08:11.847Z,24.85
2022-10-11T23:10:41.764Z,27.13
2022-10-11T23:13:08.577Z,25.77
2022-10-11T23:15:40.234Z,24.77
2022-10-11T23:18:06.980Z,26.98
2022-10-11T23:20:33.738Z,31.90
2022-10-11T23:23:00.684Z,31.55
2022-10-11T23:25:27.465Z,28.52
2022-10-11T23:27:54.266Z,29.88
2022-10-11T23:30:21.194Z,35.40
2022-10-11T23:32:47.935Z,32.72
2022-10-11T23:35:14.716Z,36.63
2022-10-11T23:37:41.689Z,34.67
2022-10-11T23:40:08.896Z,32.85
2022-10-11T23:42:35.938Z,33.25
2022-10-11T23:45:02.963Z,35.20
2022-10-11T23:47:29.795Z,30.58
2022-10-11T23:49:56.562Z,33.65
2022-10-11T23:52:23.522Z,32.70
2022-10-11T23:54:50.482Z,28.98
2022-10-11T23:57:17.273Z,26.13
2022-10-11T23:59:44.207Z,33.63
